createdAt,value
2023-04-16T00:03:54.227Z,4.10
2023-04-16T00:07:00.230Z,4.18
2023-04-16T00:10:05.628Z,3.80
2023-04-16T00:13:13.518Z,4.82
2023-04-16T00:16:19.278Z,4.45
2023-04-16T00:19:24.579Z,4.75
2023-04-16T00:22:29.923Z,4.72
2023-04-16T00:25:35.076Z,3.90
2023-04-16T00:28:43.159Z,4.35
2023-04-16T00:31:48.483Z,4.40
2023-04-16T00:34:53.944Z,4.43
2023-04-16T00:37:59.509Z,4.57
2023-04-16T00:41:05.048Z,4.38
2023-04-16T00:44:12.967Z,4.45
2023-04-16T00:47:19.394Z,4.60
2023-04-16T00:50:25.015Z,5.03
2023-04-16T00:53:30.816Z,4.80
2023-04-16T00:56:38.848Z,4.68
2023-04-16T00:59:47.086Z,12.88
2023-04-16T01:02:52.976Z,8.70
2023-04-16T01:05:58.881Z,5.35
2023-04-16T01:09:04.486Z,5.00
2023-04-16T01:12:09.884Z,4.90
2023-04-16T01:15:18.067Z,4.47
2023-04-16T01:18:23.809Z,4.80
2023-04-16T01:21:31.919Z,4.82
2023-04-16T01:24:37.263Z,5.32
2023-04-16T01:27:42.352Z,5.78
2023-04-16T01:30:47.538Z,4.90
2023-04-16T01:34:05.344Z,4.83
2023-04-16T01:37:14.116Z,5.05
2023-04-16T01:40:19.592Z,5.25
2023-04-16T01:43:25.273Z,5.63
2023-04-16T01:46:31.903Z,5.70
2023-04-16T01:49:37.644Z,4.80
2023-04-16T01:52:46.155Z,5.15
2023-04-16T01:55:52.064Z,5.82
2023-04-16T01:58:57.564Z,5.07
2023-04-16T02:02:07.773Z,5.68
2023-04-16T02:05:13.289Z,5.20
2023-04-16T02:08:21.322Z,4.88
2023-04-16T02:11:26.714Z,5.15
2023-04-16T02:14:33.372Z,4.90
2023-04-16T02:17:38.950Z,4.97
2023-04-16T02:20:50.438Z,4.75
2023-04-16T02:23:58.998Z,4.65
2023-04-16T02:27:07.638Z,4.68
2023-04-16T02:30:13.633Z,4.72
2023-04-16T02:33:20.605Z,4.93
2023-04-16T02:36:34.607Z,4.65
2023-04-16T02:39:43.521Z,5.10
2023-04-16T02:42:49.313Z,5.00
2023-04-16T02:45:54.855Z,5.57
2023-04-16T02:49:00.363Z,5.45
2023-04-16T02:52:06.165Z,5.55
2023-04-16T02:55:14.929Z,5.30
2023-04-16T02:58:20.444Z,4.88
2023-04-16T03:01:25.902Z,5.50
2023-04-16T03:04:31.334Z,5.00
2023-04-16T03:07:36.840Z,6.10
2023-04-16T03:10:44.609Z,5.53
2023-04-16T03:13:50.207Z,5.18
2023-04-16T03:16:55.470Z,5.20
2023-04-16T03:20:00.929Z,5.68
2023-04-16T03:23:07.905Z,5.00
2023-04-16T03:26:16.025Z,5.05
2023-04-16T03:29:21.431Z,4.82
2023-04-16T03:32:27.317Z,5.22
2023-04-16T03:35:33.716Z,5.82
2023-04-16T03:38:39.864Z,5.30
2023-04-16T03:41:48.862Z,5.95
2023-04-16T03:44:54.176Z,5.28
2023-04-16T03:48:01.060Z,5.82
2023-04-16T03:51:06.567Z,5.20
2023-04-16T03:54:12.666Z,5.13
2023-04-16T03:57:22.901Z,4.97
2023-04-16T04:00:28.533Z,5.63
2023-04-16T04:03:42.596Z,5.75
2023-04-16T04:06:48.646Z,5.65
2023-04-16T04:09:54.689Z,5.70
2023-04-16T04:13:02.872Z,5.47
2023-04-16T04:16:09.270Z,5.32
2023-04-16T04:19:14.798Z,5.22
2023-04-16T04:22:20.975Z,5.50
2023-04-16T04:25:26.469Z,6.03
2023-04-16T04:28:34.962Z,5.30
2023-04-16T04:31:40.189Z,5.07
2023-04-16T04:34:46.638Z,5.25
2023-04-16T04:37:52.159Z,5.55
2023-04-16T04:40:58.780Z,5.30
2023-04-16T04:44:08.966Z,5.40
2023-04-16T04:47:14.632Z,5.15
2023-04-16T04:50:19.995Z,5.88
2023-04-16T04:53:25.512Z,5.55
2023-04-16T04:56:30.844Z,5.63
2023-04-16T04:59:39.233Z,5.20
2023-04-16T05:02:44.944Z,5.65
2023-04-16T05:05:50.364Z,5.50
2023-04-16T05:08:55.966Z,5.35
2023-04-16T05:12:01.561Z,5.28
2023-04-16T05:15:10.151Z,6.05
2023-04-16T05:21:20.514Z,5.47
2023-04-16T05:24:25.997Z,4.95
2023-04-16T05:27:31.276Z,4.68
2023-04-16T05:30:39.340Z,5.25
2023-04-16T05:33:44.695Z,4.95
2023-04-16T05:36:50.129Z,5.20
2023-04-16T05:39:55.460Z,5.10
2023-04-16T05:43:00.933Z,4.97
2023-04-16T05:46:08.754Z,4.80
2023-04-16T05:49:14.111Z,4.72
2023-04-16T05:52:19.654Z,5.85
2023-04-16T05:55:25.756Z,5.40
2023-04-16T05:58:31.332Z,4.63
2023-04-16T06:01:39.554Z,4.30
2023-04-16T06:04:45.013Z,5.07
2023-04-16T06:07:50.696Z,6.10
2023-04-16T06:10:57.170Z,5.72
2023-04-16T06:14:02.292Z,4.93
2023-04-16T06:17:10.323Z,5.85
2023-04-16T06:20:16.225Z,5.43
2023-04-16T06:23:21.839Z,5.38
2023-04-16T06:26:27.633Z,5.78
2023-04-16T06:29:40.655Z,5.97
2023-04-16T06:32:49.725Z,5.65
2023-04-16T06:35:55.223Z,5.20
2023-04-16T06:39:00.452Z,5.55
2023-04-16T06:42:05.853Z,6.15
2023-04-16T06:45:12.247Z,5.72
2023-04-16T06:48:20.166Z,6.00
2023-04-16T06:51:26.806Z,5.68
2023-04-16T06:54:32.373Z,5.60
2023-04-16T06:57:37.916Z,5.22
2023-04-16T07:00:43.351Z,5.47
2023-04-16T07:03:52.078Z,5.68
2023-04-16T07:06:57.839Z,5.85
2023-04-16T07:10:03.287Z,5.70
2023-04-16T07:13:08.785Z,5.55
2023-04-16T07:16:14.271Z,5.28
2023-04-16T07:19:22.154Z,5.70
2023-04-16T07:22:27.940Z,5.43
2023-04-16T07:25:33.050Z,5.68
2023-04-16T07:28:38.456Z,5.40
2023-04-16T07:31:44.033Z,4.60
2023-04-16T07:34:51.854Z,5.43
2023-04-16T07:37:57.130Z,5.22
2023-04-16T07:41:02.343Z,5.75
2023-04-16T07:44:07.588Z,4.68
2023-04-16T07:47:12.792Z,5.05
2023-04-16T07:50:20.743Z,5.38
2023-04-16T07:53:26.412Z,5.45
2023-04-16T07:56:31.985Z,4.93
2023-04-16T07:59:37.407Z,4.00
2023-04-16T08:02:43.384Z,4.72
2023-04-16T08:05:51.658Z,4.45
2023-04-16T08:08:56.888Z,5.35
2023-04-16T08:12:03.422Z,4.53
2023-04-16T08:15:09.597Z,4.70
2023-04-16T08:18:16.078Z,4.40
2023-04-16T08:21:23.951Z,4.20
2023-04-16T08:24:29.519Z,4.30
2023-04-16T08:27:35.280Z,4.22
2023-04-16T08:30:40.730Z,4.07
2023-04-16T08:33:46.203Z,4.05
2023-04-16T08:36:54.120Z,3.75
2023-04-16T08:39:59.831Z,4.00
2023-04-16T08:43:06.098Z,4.13
2023-04-16T08:46:12.220Z,4.00
2023-04-16T08:49:19.898Z,4.22
2023-04-16T08:52:29.143Z,4.43
2023-04-16T08:55:39.042Z,4.35
2023-04-16T08:58:45.342Z,4.10
2023-04-16T09:01:52.794Z,4.35
2023-04-16T09:04:59.716Z,3.40
2023-04-16T09:08:08.123Z,3.95
2023-04-16T09:11:13.430Z,3.95
2023-04-16T09:14:18.946Z,3.78
2023-04-16T09:17:24.396Z,3.60
2023-04-16T09:20:30.326Z,3.90
2023-04-16T09:23:38.859Z,3.70
2023-04-16T09:26:45.040Z,3.45
2023-04-16T09:29:50.400Z,4.10
2023-04-16T09:32:57.012Z,3.85
2023-04-16T09:36:02.207Z,3.35
2023-04-16T09:39:10.368Z,4.38
2023-04-16T09:42:15.825Z,4.18
2023-04-16T09:45:21.369Z,3.80
2023-04-16T09:48:33.028Z,3.80
2023-04-16T09:51:40.645Z,3.83
2023-04-16T09:54:52.458Z,3.88
2023-04-16T09:58:02.166Z,3.63
2023-04-16T10:01:10.063Z,4.28
2023-04-16T10:04:16.312Z,4.00
2023-04-16T10:07:21.678Z,3.83
2023-04-16T10:10:29.776Z,4.43
2023-04-16T10:13:35.434Z,3.65
2023-04-16T10:16:42.215Z,3.83
2023-04-16T10:19:47.599Z,4.32
2023-04-16T10:22:53.360Z,4.25
2023-04-16T10:26:02.201Z,4.15
2023-04-16T10:29:08.731Z,4.10
2023-04-16T10:32:14.631Z,4.65
2023-04-16T10:35:22.639Z,3.75
2023-04-16T10:38:28.781Z,3.28
2023-04-16T10:41:38.293Z,3.45
2023-04-16T10:44:45.506Z,3.45
2023-04-16T10:47:51.355Z,4.00
2023-04-16T10:51:01.351Z,3.78
2023-04-16T10:54:07.633Z,3.42
2023-04-16T10:57:21.453Z,4.00
2023-04-16T11:00:26.909Z,3.75
2023-04-16T11:03:34.344Z,3.42
2023-04-16T11:06:40.843Z,3.63
2023-04-16T11:09:47.900Z,4.43
2023-04-16T11:12:57.245Z,3.83
2023-04-16T11:16:03.128Z,3.38
2023-04-16T11:19:09.111Z,3.35
2023-04-16T11:22:17.518Z,3.78
2023-04-16T11:28:39.930Z,3.70
2023-04-16T11:31:45.639Z,4.05
2023-04-16T11:34:50.840Z,3.88
2023-04-16T11:37:59.086Z,5.75
2023-04-16T11:41:04.374Z,3.92
2023-04-16T11:44:22.884Z,3.83
2023-04-16T11:47:28.436Z,4.10
2023-04-16T11:50:33.959Z,4.22
2023-04-16T11:53:39.753Z,4.13
2023-04-16T11:56:48.726Z,3.72
2023-04-16T12:00:02.585Z,4.20
2023-04-16T12:03:18.756Z,4.60
2023-04-16T12:06:24.700Z,3.95
2023-04-16T12:09:30.189Z,4.03
2023-04-16T12:12:36.155Z,4.00
2023-04-16T12:15:54.170Z,4.32
2023-04-16T12:19:04.332Z,4.05
2023-04-16T12:22:09.570Z,4.45
2023-04-16T12:25:15.968Z,3.78
2023-04-16T12:28:30.475Z,3.28
2023-04-16T12:31:47.523Z,4.15
2023-04-16T12:34:55.821Z,4.10
2023-04-16T12:38:01.298Z,4.18
2023-04-16T12:41:09.733Z,3.92
2023-04-16T12:44:15.937Z,3.92
2023-04-16T12:47:24.241Z,3.53
2023-04-16T12:50:29.779Z,4.32
2023-04-16T12:53:35.234Z,4.63
2023-04-16T12:56:41.019Z,4.00
2023-04-16T12:59:47.281Z,4.32
2023-04-16T13:02:55.643Z,4.82
2023-04-16T13:06:02.545Z,3.75
2023-04-16T13:09:08.394Z,4.20
2023-04-16T13:12:13.853Z,4.13
2023-04-16T13:15:19.292Z,4.45
2023-04-16T13:18:27.861Z,4.00
2023-04-16T13:21:33.449Z,4.78
2023-04-16T13:24:39.630Z,4.43
2023-04-16T13:27:44.856Z,4.47
2023-04-16T13:30:50.263Z,4.20
2023-04-16T13:33:58.276Z,4.30
2023-04-16T13:37:03.926Z,4.05
2023-04-16T13:40:10.058Z,4.15
2023-04-16T13:43:17.222Z,4.85
2023-04-16T13:46:22.575Z,4.28
2023-04-16T13:49:32.645Z,4.90
2023-04-16T13:52:39.746Z,4.45
2023-04-16T13:55:45.865Z,4.57
2023-04-16T13:58:52.498Z,4.28
2023-04-16T14:01:57.863Z,5.10
2023-04-16T14:05:07.096Z,4.60
2023-04-16T14:08:15.061Z,4.35
2023-04-16T14:11:20.895Z,4.97
2023-04-16T14:14:26.763Z,5.05
2023-04-16T14:17:32.395Z,4.82
2023-04-16T14:20:40.582Z,4.70
2023-04-16T14:23:45.707Z,4.65
2023-04-16T14:26:51.238Z,5.05
2023-04-16T14:29:56.588Z,4.65
2023-04-16T14:33:02.046Z,4.32
2023-04-16T14:36:10.324Z,4.88
2023-04-16T14:39:15.859Z,4.32
2023-04-16T14:42:21.232Z,4.25
2023-04-16T14:45:30.456Z,4.47
2023-04-16T14:48:36.042Z,4.07
2023-04-16T14:51:44.320Z,4.07
2023-04-16T14:57:54.671Z,4.18
2023-04-16T15:01:01.059Z,3.92
2023-04-16T15:04:06.423Z,3.75
2023-04-16T15:07:14.914Z,4.95
2023-04-16T15:13:25.113Z,4.18
2023-04-16T15:16:30.565Z,4.00
2023-04-16T15:19:35.872Z,3.70
2023-04-16T15:22:43.748Z,3.75
2023-04-16T15:25:49.212Z,4.05
2023-04-16T15:28:54.372Z,4.05
2023-04-16T15:31:59.850Z,4.28
2023-04-16T15:35:06.370Z,3.85
2023-04-16T15:38:14.934Z,4.32
2023-04-16T15:41:20.363Z,4.40
2023-04-16T15:44:25.759Z,4.68
2023-04-16T15:47:31.024Z,4.75
2023-04-16T15:50:36.896Z,4.30
2023-04-16T15:53:45.593Z,4.60
2023-04-16T15:56:51.076Z,5.00
2023-04-16T16:00:05.866Z,4.72
2023-04-16T16:03:12.746Z,5.15
2023-04-16T16:06:18.278Z,4.88
2023-04-16T16:09:28.898Z,5.35
2023-04-16T16:12:34.450Z,4.72
2023-04-16T16:15:39.861Z,4.90
2023-04-16T16:18:45.169Z,4.88
2023-04-16T16:21:50.718Z,4.82
2023-04-16T16:24:59.244Z,4.85
2023-04-16T16:28:06.521Z,4.40
2023-04-16T16:31:12.870Z,4.97
2023-04-16T16:34:21.351Z,5.70
2023-04-16T16:37:27.401Z,4.50
2023-04-16T16:40:35.326Z,4.93
2023-04-16T16:43:40.896Z,4.90
2023-04-16T16:46:46.269Z,6.00
2023-04-16T16:49:51.640Z,5.28
2023-04-16T16:52:56.951Z,5.60
2023-04-16T16:56:05.226Z,4.95
2023-04-16T17:02:17.159Z,5.35
2023-04-16T17:05:22.948Z,5.18
2023-04-16T17:08:29.476Z,4.93
2023-04-16T17:11:37.488Z,4.45
2023-04-16T17:14:43.431Z,4.63
2023-04-16T17:17:48.867Z,5.35
2023-04-16T17:20:54.105Z,4.80
2023-04-16T17:23:59.877Z,4.93
2023-04-16T17:27:07.936Z,5.57
2023-04-16T17:30:13.897Z,5.30
2023-04-16T17:33:19.838Z,5.28
2023-04-16T17:36:25.794Z,5.70
2023-04-16T17:39:31.654Z,5.78
2023-04-16T17:42:39.889Z,5.63
2023-04-16T17:45:45.404Z,5.72
2023-04-16T17:48:51.053Z,5.22
2023-04-16T17:51:57.781Z,5.78
2023-04-16T17:55:04.070Z,5.82
2023-04-16T17:58:12.284Z,5.70
2023-04-16T18:01:18.254Z,5.55
2023-04-16T18:04:23.889Z,6.25
2023-04-16T18:07:29.018Z,5.25
2023-04-16T18:10:34.243Z,5.40
2023-04-16T18:13:43.914Z,6.35
2023-04-16T18:16:50.013Z,5.97
2023-04-16T18:19:55.494Z,5.93
2023-04-16T18:23:00.899Z,4.97
2023-04-16T18:26:08.508Z,6.18
2023-04-16T18:32:23.021Z,6.60
2023-04-16T18:35:28.639Z,6.32
2023-04-16T18:38:34.801Z,6.72
2023-04-16T18:41:41.058Z,5.75
2023-04-16T18:44:46.717Z,5.95
2023-04-16T18:47:58.959Z,5.82
2023-04-16T18:51:04.269Z,6.65
2023-04-16T18:54:09.611Z,6.57
2023-04-16T18:57:14.771Z,5.70
2023-04-16T19:00:20.583Z,5.72
2023-04-16T19:03:30.064Z,6.72
2023-04-16T19:06:35.470Z,6.30
2023-04-16T19:09:40.572Z,6.85
2023-04-16T19:12:46.073Z,6.25
2023-04-16T19:15:51.316Z,6.50
2023-04-16T19:18:59.282Z,6.30
2023-04-16T19:22:04.560Z,7.28
2023-04-16T19:25:10.399Z,6.85
2023-04-16T19:28:15.467Z,7.80
2023-04-16T19:31:20.865Z,8.65
2023-04-16T19:34:28.882Z,7.82
2023-04-16T19:37:34.181Z,8.23
2023-04-16T19:40:40.500Z,8.07
2023-04-16T19:43:45.783Z,8.20
2023-04-16T19:46:51.588Z,8.80
2023-04-16T19:49:59.417Z,8.73
2023-04-16T19:53:04.869Z,8.65
2023-04-16T19:56:11.029Z,8.27
2023-04-16T19:59:16.756Z,9.02
2023-04-16T20:02:22.014Z,9.00
2023-04-16T20:05:30.958Z,8.30
2023-04-16T20:08:36.605Z,9.18
2023-04-16T20:11:41.973Z,8.80
2023-04-16T20:14:47.927Z,8.63
2023-04-16T20:17:53.669Z,8.70
2023-04-16T20:21:06.251Z,9.38
2023-04-16T20:24:11.988Z,8.95
2023-04-16T20:27:19.800Z,9.00
2023-04-16T20:30:29.515Z,9.00
2023-04-16T20:33:35.007Z,8.98
2023-04-16T20:36:42.877Z,8.65
2023-04-16T20:39:50.650Z,9.07
2023-04-16T20:42:56.808Z,9.52
2023-04-16T20:46:03.506Z,9.18
2023-04-16T20:49:09.833Z,9.60
2023-04-16T20:52:18.473Z,11.40
2023-04-16T20:58:29.033Z,10.85
2023-04-16T21:01:35.083Z,10.55
2023-04-16T21:04:40.869Z,9.77
2023-04-16T21:07:49.560Z,11.10
2023-04-16T21:10:55.019Z,10.13
2023-04-16T21:14:00.508Z,10.25
2023-04-16T21:17:05.720Z,10.45
2023-04-16T21:20:14.421Z,10.57
2023-04-16T21:26:28.053Z,10.10
2023-04-16T21:32:38.680Z,10.50
2023-04-16T21:35:44.387Z,10.57
2023-04-16T21:38:49.736Z,11.32
2023-04-16T21:41:58.066Z,11.35
2023-04-16T21:45:03.942Z,11.55
2023-04-16T21:48:09.879Z,11.50
2023-04-16T21:51:16.108Z,11.70
2023-04-16T21:54:21.386Z,11.80
2023-04-16T21:57:29.585Z,12.30
2023-04-16T22:00:35.200Z,12.30
2023-04-16T22:07:03.732Z,12.25
2023-04-16T22:10:10.018Z,12.32
2023-04-16T22:13:18.280Z,12.35
2023-04-16T22:16:23.765Z,12.05
2023-04-16T22:19:29.392Z,12.52
2023-04-16T22:26:06.080Z,13.20
2023-04-16T22:29:14.072Z,12.15
2023-04-16T22:32:19.462Z,13.40
2023-04-16T22:35:24.911Z,12.50
2023-04-16T22:38:30.348Z,13.93
2023-04-16T22:41:36.126Z,13.35
2023-04-16T22:44:45.033Z,12.88
2023-04-16T22:47:50.470Z,13.35
2023-04-16T22:50:55.855Z,12.18
2023-04-16T22:54:01.631Z,12.80
2023-04-16T22:57:07.270Z,12.20
2023-04-16T23:00:17.253Z,12.65
2023-04-16T23:03:22.542Z,12.15
2023-04-16T23:06:27.929Z,10.57
2023-04-16T23:09:33.746Z,11.32
2023-04-16T23:12:40.571Z,11.45
2023-04-16T23:15:48.483Z,10.60
2023-04-16T23:18:54.290Z,11.27
2023-04-16T23:21:59.666Z,11.32
2023-04-16T23:25:05.299Z,10.88
2023-04-16T23:28:10.615Z,12.02
2023-04-16T23:31:18.772Z,11.00
2023-04-16T23:34:24.280Z,10.55
2023-04-16T23:37:29.603Z,10.27
2023-04-16T23:40:34.951Z,11.27
2023-04-16T23:43:41.285Z,10.60
2023-04-16T23:46:49.164Z,11.40
2023-04-16T23:49:54.548Z,11.82
2023-04-16T23:52:59.950Z,10.50
2023-04-16T23:56:05.417Z,11.80
2023-04-16T23:59:12.059Z,10.65
